sensor_id;sensor_type;location;lat;lon;timestamp;P1;durP1;ratioP1;P2;durP2;ratioP2
75851;SDS011;64500;52.632;20.656;2022-12-24T00:00:37;35.70;;;18.80;;
75851;SDS011;64500;52.632;20.656;2022-12-24T00:03:18;34.70;;;17.30;;
75851;SDS011;64500;52.632;20.656;2022-12-24T00:05:45;36.30;;;18.10;;
75851;SDS011;64500;52.632;20.656;2022-12-24T00:08:12;35.50;;;17.80;;
75851;SDS011;64500;52.632;20.656;2022-12-24T00:10:39;32.60;;;17.70;;
75851;SDS011;64500;52.632;20.656;2022-12-24T00:13:06;32.60;;;17.50;;
75851;SDS011;64500;52.632;20.656;2022-12-24T00:15:33;33.20;;;17.10;;
75851;SDS011;64500;52.632;20.656;2022-12-24T00:18:00;36.30;;;18.90;;
75851;SDS011;64500;52.632;20.656;2022-12-24T00:20:27;31.20;;;17.90;;
75851;SDS011;64500;52.632;20.656;2022-12-24T00:22:54;35.90;;;18.70;;
75851;SDS011;64500;52.632;20.656;2022-12-24T00:25:21;34.40;;;16.90;;
75851;SDS011;64500;52.632;20.656;2022-12-24T00:27:48;33.10;;;17.20;;
75851;SDS011;64500;52.632;20.656;2022-12-24T00:30:15;37.20;;;19.10;;
75851;SDS011;64500;52.632;20.656;2022-12-24T00:32:42;33.60;;;17.20;;
75851;SDS011;64500;52.632;20.656;2022-12-24T00:35:09;33.30;;;17.50;;
75851;SDS011;64500;52.632;20.656;2022-12-24T00:37:36;33.60;;;17.70;;
75851;SDS011;64500;52.632;20.656;2022-12-24T00:40:03;35.70;;;18.50;;
75851;SDS011;64500;52.632;20.656;2022-12-24T00:42:31;35.50;;;17.80;;
75851;SDS011;64500;52.632;20.656;2022-12-24T00:44:58;33.00;;;17.30;;
75851;SDS011;64500;52.632;20.656;2022-12-24T00:47:25;33.90;;;17.70;;
75851;SDS011;64500;52.632;20.656;2022-12-24T00:49:52;35.20;;;17.50;;
75851;SDS011;64500;52.632;20.656;2022-12-24T00:52:19;35.60;;;18.30;;
75851;SDS011;64500;52.632;20.656;2022-12-24T00:54:45;31.60;;;17.10;;
75851;SDS011;64500;52.632;20.656;2022-12-24T00:57:12;30.90;;;17.30;;
75851;SDS011;64500;52.632;20.656;2022-12-24T00:59:39;34.80;;;17.50;;
75851;SDS011;64500;52.632;20.656;2022-12-24T01:02:06;35.30;;;18.60;;
75851;SDS011;64500;52.632;20.656;2022-12-24T01:04:34;37.20;;;19.60;;
75851;SDS011;64500;52.632;20.656;2022-12-24T01:07:19;32.00;;;17.10;;
75851;SDS011;64500;52.632;20.656;2022-12-24T01:09:46;33.40;;;16.70;;
75851;SDS011;64500;52.632;20.656;2022-12-24T01:12:13;33.60;;;17.50;;
75851;SDS011;64500;52.632;20.656;2022-12-24T01:14:40;36.10;;;18.60;;
75851;SDS011;64500;52.632;20.656;2022-12-24T01:17:07;31.00;;;16.20;;
75851;SDS011;64500;52.632;20.656;2022-12-24T01:19:35;36.10;;;17.80;;
75851;SDS011;64500;52.632;20.656;2022-12-24T01:22:02;31.40;;;16.20;;
75851;SDS011;64500;52.632;20.656;2022-12-24T01:24:29;31.90;;;16.70;;
75851;SDS011;64500;52.632;20.656;2022-12-24T01:26:56;36.10;;;18.80;;
75851;SDS011;64500;52.632;20.656;2022-12-24T01:29:23;33.90;;;18.00;;
75851;SDS011;64500;52.632;20.656;2022-12-24T01:31:50;32.80;;;17.90;;
75851;SDS011;64500;52.632;20.656;2022-12-24T01:34:18;31.70;;;17.30;;
75851;SDS011;64500;52.632;20.656;2022-12-24T01:36:45;32.40;;;17.30;;
75851;SDS011;64500;52.632;20.656;2022-12-24T01:39:12;35.50;;;17.90;;
75851;SDS011;64500;52.632;20.656;2022-12-24T01:41:39;35.60;;;17.60;;
75851;SDS011;64500;52.632;20.656;2022-12-24T01:44:26;39.50;;;19.70;;
75851;SDS011;64500;52.632;20.656;2022-12-24T01:49:25;33.40;;;17.10;;
75851;SDS011;64500;52.632;20.656;2022-12-24T01:52:04;35.20;;;18.80;;
75851;SDS011;64500;52.632;20.656;2022-12-24T01:54:36;31.70;;;17.10;;
75851;SDS011;64500;52.632;20.656;2022-12-24T01:57:08;34.70;;;18.40;;
75851;SDS011;64500;52.632;20.656;2022-12-24T01:59:41;34.40;;;16.80;;
75851;SDS011;64500;52.632;20.656;2022-12-24T02:02:11;33.50;;;16.90;;
75851;SDS011;64500;52.632;20.656;2022-12-24T02:07:15;34.90;;;17.60;;
75851;SDS011;64500;52.632;20.656;2022-12-24T02:09:42;34.50;;;17.60;;
75851;SDS011;64500;52.632;20.656;2022-12-24T02:12:10;29.70;;;15.30;;
75851;SDS011;64500;52.632;20.656;2022-12-24T02:14:37;29.10;;;15.80;;
75851;SDS011;64500;52.632;20.656;2022-12-24T02:17:11;27.70;;;15.10;;
75851;SDS011;64500;52.632;20.656;2022-12-24T02:27:56;35.10;;;16.90;;
75851;SDS011;64500;52.632;20.656;2022-12-24T02:30:44;39.70;;;18.50;;
75851;SDS011;64500;52.632;20.656;2022-12-24T02:33:19;35.30;;;17.40;;
75851;SDS011;64500;52.632;20.656;2022-12-24T02:38:47;39.10;;;17.80;;
75851;SDS011;64500;52.632;20.656;2022-12-24T02:41:21;36.80;;;18.10;;
75851;SDS011;64500;52.632;20.656;2022-12-24T02:43:53;39.30;;;19.10;;
75851;SDS011;64500;52.632;20.656;2022-12-24T02:46:24;36.70;;;18.70;;
75851;SDS011;64500;52.632;20.656;2022-12-24T02:51:24;30.60;;;15.80;;
75851;SDS011;64500;52.632;20.656;2022-12-24T02:53:51;30.10;;;15.90;;
75851;SDS011;64500;52.632;20.656;2022-12-24T03:02:28;29.10;;;16.40;;
75851;SDS011;64500;52.632;20.656;2022-12-24T03:04:49;33.10;;;16.90;;
75851;SDS011;64500;52.632;20.656;2022-12-24T03:07:22;30.30;;;15.90;;
75851;SDS011;64500;52.632;20.656;2022-12-24T03:13:07;31.00;;;16.70;;
75851;SDS011;64500;52.632;20.656;2022-12-24T03:15:45;28.20;;;14.90;;
75851;SDS011;64500;52.632;20.656;2022-12-24T03:18:14;28.20;;;14.90;;
75851;SDS011;64500;52.632;20.656;2022-12-24T03:20:45;27.50;;;14.30;;
75851;SDS011;64500;52.632;20.656;2022-12-24T03:23:23;28.10;;;15.20;;
75851;SDS011;64500;52.632;20.656;2022-12-24T03:25:50;30.30;;;16.00;;
75851;SDS011;64500;52.632;20.656;2022-12-24T03:28:18;25.60;;;11.60;;
75851;SDS011;64500;52.632;20.656;2022-12-24T03:30:50;33.90;;;17.70;;
75851;SDS011;64500;52.632;20.656;2022-12-24T03:33:17;34.40;;;17.30;;
75851;SDS011;64500;52.632;20.656;2022-12-24T03:35:44;37.40;;;18.40;;
75851;SDS011;64500;52.632;20.656;2022-12-24T03:38:12;33.80;;;17.40;;
75851;SDS011;64500;52.632;20.656;2022-12-24T03:40:38;33.90;;;17.40;;
75851;SDS011;64500;52.632;20.656;2022-12-24T03:43:05;31.30;;;16.20;;
75851;SDS011;64500;52.632;20.656;2022-12-24T03:45:33;28.70;;;15.50;;
75851;SDS011;64500;52.632;20.656;2022-12-24T03:48:00;30.10;;;16.20;;
75851;SDS011;64500;52.632;20.656;2022-12-24T03:50:27;33.70;;;17.60;;
75851;SDS011;64500;52.632;20.656;2022-12-24T03:52:54;35.70;;;18.10;;
75851;SDS011;64500;52.632;20.656;2022-12-24T03:55:21;32.90;;;16.90;;
75851;SDS011;64500;52.632;20.656;2022-12-24T03:57:49;33.70;;;17.30;;
75851;SDS011;64500;52.632;20.656;2022-12-24T04:00:16;39.00;;;18.00;;
75851;SDS011;64500;52.632;20.656;2022-12-24T04:02:44;34.80;;;17.50;;
75851;SDS011;64500;52.632;20.656;2022-12-24T04:05:15;29.10;;;14.70;;
75851;SDS011;64500;52.632;20.656;2022-12-24T04:07:45;30.30;;;16.30;;
75851;SDS011;64500;52.632;20.656;2022-12-24T04:10:13;29.50;;;14.80;;
75851;SDS011;64500;52.632;20.656;2022-12-24T04:12:42;29.20;;;15.90;;
75851;SDS011;64500;52.632;20.656;2022-12-24T04:15:09;28.90;;;15.30;;
75851;SDS011;64500;52.632;20.656;2022-12-24T04:17:36;29.00;;;15.60;;
75851;SDS011;64500;52.632;20.656;2022-12-24T04:20:04;28.20;;;14.90;;
75851;SDS011;64500;52.632;20.656;2022-12-24T04:22:31;31.80;;;15.90;;
75851;SDS011;64500;52.632;20.656;2022-12-24T04:24:58;29.70;;;15.90;;
75851;SDS011;64500;52.632;20.656;2022-12-24T04:27:25;32.40;;;16.10;;
75851;SDS011;64500;52.632;20.656;2022-12-24T04:29:52;34.50;;;17.20;;
75851;SDS011;64500;52.632;20.656;2022-12-24T04:32:19;31.60;;;16.30;;
75851;SDS011;64500;52.632;20.656;2022-12-24T04:34:46;30.00;;;15.70;;
75851;SDS011;64500;52.632;20.656;2022-12-24T04:37:13;29.40;;;16.00;;
75851;SDS011;64500;52.632;20.656;2022-12-24T04:39:40;28.00;;;14.90;;
75851;SDS011;64500;52.632;20.656;2022-12-24T04:42:07;27.50;;;15.30;;
75851;SDS011;64500;52.632;20.656;2022-12-24T04:44:34;32.10;;;16.10;;
75851;SDS011;64500;52.632;20.656;2022-12-24T04:47:01;30.10;;;15.80;;
75851;SDS011;64500;52.632;20.656;2022-12-24T04:49:28;30.50;;;15.50;;
75851;SDS011;64500;52.632;20.656;2022-12-24T04:51:55;28.40;;;15.50;;
75851;SDS011;64500;52.632;20.656;2022-12-24T04:54:22;34.10;;;16.10;;
75851;SDS011;64500;52.632;20.656;2022-12-24T04:56:49;30.90;;;15.30;;
75851;SDS011;64500;52.632;20.656;2022-12-24T04:59:16;29.70;;;14.80;;
75851;SDS011;64500;52.632;20.656;2022-12-24T05:01:42;29.60;;;15.30;;
75851;SDS011;64500;52.632;20.656;2022-12-24T05:04:09;27.10;;;14.80;;
75851;SDS011;64500;52.632;20.656;2022-12-24T05:06:37;27.80;;;14.90;;
75851;SDS011;64500;52.632;20.656;2022-12-24T05:09:03;30.20;;;15.60;;
75851;SDS011;64500;52.632;20.656;2022-12-24T05:11:30;30.60;;;15.10;;
75851;SDS011;64500;52.632;20.656;2022-12-24T05:13:57;30.00;;;15.90;;
75851;SDS011;64500;52.632;20.656;2022-12-24T05:16:25;33.30;;;16.40;;
75851;SDS011;64500;52.632;20.656;2022-12-24T05:18:52;28.70;;;15.20;;
75851;SDS011;64500;52.632;20.656;2022-12-24T05:21:20;40.10;;;18.10;;
75851;SDS011;64500;52.632;20.656;2022-12-24T05:23:49;32.10;;;16.00;;
75851;SDS011;64500;52.632;20.656;2022-12-24T05:26:43;35.50;;;17.20;;
75851;SDS011;64500;52.632;20.656;2022-12-24T05:29:15;33.60;;;16.40;;
75851;SDS011;64500;52.632;20.656;2022-12-24T05:31:43;43.30;;;19.50;;
75851;SDS011;64500;52.632;20.656;2022-12-24T05:34:12;32.20;;;16.30;;
75851;SDS011;64500;52.632;20.656;2022-12-24T05:36:41;30.80;;;16.50;;
75851;SDS011;64500;52.632;20.656;2022-12-24T05:39:11;32.30;;;16.30;;
75851;SDS011;64500;52.632;20.656;2022-12-24T05:41:41;37.40;;;19.50;;
75851;SDS011;64500;52.632;20.656;2022-12-24T05:44:08;28.00;;;15.00;;
75851;SDS011;64500;52.632;20.656;2022-12-24T05:46:36;32.60;;;16.70;;
75851;SDS011;64500;52.632;20.656;2022-12-24T05:49:02;31.50;;;16.20;;
75851;SDS011;64500;52.632;20.656;2022-12-24T05:51:29;30.80;;;16.10;;
75851;SDS011;64500;52.632;20.656;2022-12-24T05:53:56;32.20;;;16.40;;
75851;SDS011;64500;52.632;20.656;2022-12-24T05:56:23;30.30;;;15.90;;
75851;SDS011;64500;52.632;20.656;2022-12-24T05:58:51;30.90;;;15.60;;
75851;SDS011;64500;52.632;20.656;2022-12-24T06:01:20;36.40;;;17.70;;
75851;SDS011;64500;52.632;20.656;2022-12-24T06:03:48;32.70;;;16.90;;
75851;SDS011;64500;52.632;20.656;2022-12-24T06:06:19;38.60;;;17.60;;
75851;SDS011;64500;52.632;20.656;2022-12-24T06:08:48;28.70;;;14.80;;
75851;SDS011;64500;52.632;20.656;2022-12-24T06:11:17;36.60;;;17.10;;
75851;SDS011;64500;52.632;20.656;2022-12-24T06:13:45;35.20;;;17.20;;
75851;SDS011;64500;52.632;20.656;2022-12-24T06:16:13;34.70;;;17.20;;
75851;SDS011;64500;52.632;20.656;2022-12-24T06:18:42;35.80;;;18.00;;
75851;SDS011;64500;52.632;20.656;2022-12-24T06:21:09;35.30;;;18.20;;
75851;SDS011;64500;52.632;20.656;2022-12-24T06:23:38;51.50;;;25.70;;
75851;SDS011;64500;52.632;20.656;2022-12-24T06:26:07;42.40;;;20.60;;
75851;SDS011;64500;52.632;20.656;2022-12-24T06:28:37;35.20;;;18.70;;
75851;SDS011;64500;52.632;20.656;2022-12-24T06:31:04;35.90;;;17.60;;
75851;SDS011;64500;52.632;20.656;2022-12-24T06:33:33;33.60;;;17.80;;
75851;SDS011;64500;52.632;20.656;2022-12-24T06:36:00;33.30;;;17.60;;
75851;SDS011;64500;52.632;20.656;2022-12-24T06:38:28;33.20;;;16.80;;
75851;SDS011;64500;52.632;20.656;2022-12-24T06:40:56;34.00;;;16.10;;
75851;SDS011;64500;52.632;20.656;2022-12-24T06:43:24;31.10;;;16.30;;
75851;SDS011;64500;52.632;20.656;2022-12-24T06:45:51;35.90;;;18.10;;
75851;SDS011;64500;52.632;20.656;2022-12-24T06:48:19;32.70;;;16.90;;
75851;SDS011;64500;52.632;20.656;2022-12-24T06:50:46;37.20;;;17.40;;
75851;SDS011;64500;52.632;20.656;2022-12-24T06:53:13;30.10;;;15.10;;
75851;SDS011;64500;52.632;20.656;2022-12-24T06:55:40;33.60;;;18.00;;
75851;SDS011;64500;52.632;20.656;2022-12-24T06:58:06;36.00;;;17.10;;
75851;SDS011;64500;52.632;20.656;2022-12-24T07:00:34;34.10;;;17.20;;
75851;SDS011;64500;52.632;20.656;2022-12-24T07:03:00;33.60;;;17.40;;
75851;SDS011;64500;52.632;20.656;2022-12-24T07:05:27;36.30;;;18.30;;
75851;SDS011;64500;52.632;20.656;2022-12-24T07:07:55;36.80;;;18.30;;
75851;SDS011;64500;52.632;20.656;2022-12-24T07:10:22;33.70;;;17.70;;
75851;SDS011;64500;52.632;20.656;2022-12-24T07:12:49;34.40;;;17.20;;
75851;SDS011;64500;52.632;20.656;2022-12-24T07:15:16;32.80;;;17.60;;
75851;SDS011;64500;52.632;20.656;2022-12-24T07:17:43;33.40;;;17.90;;
75851;SDS011;64500;52.632;20.656;2022-12-24T07:20:11;37.50;;;19.10;;
75851;SDS011;64500;52.632;20.656;2022-12-24T07:22:40;34.50;;;17.80;;
75851;SDS011;64500;52.632;20.656;2022-12-24T07:25:07;33.70;;;17.90;;
75851;SDS011;64500;52.632;20.656;2022-12-24T07:27:35;32.30;;;17.50;;
75851;SDS011;64500;52.632;20.656;2022-12-24T07:30:02;32.10;;;16.60;;
75851;SDS011;64500;52.632;20.656;2022-12-24T07:32:30;32.90;;;17.90;;
75851;SDS011;64500;52.632;20.656;2022-12-24T07:34:57;32.30;;;16.00;;
75851;SDS011;64500;52.632;20.656;2022-12-24T07:37:24;29.80;;;15.80;;
75851;SDS011;64500;52.632;20.656;2022-12-24T07:39:52;29.50;;;14.50;;
75851;SDS011;64500;52.632;20.656;2022-12-24T07:42:19;32.70;;;16.70;;
75851;SDS011;64500;52.632;20.656;2022-12-24T07:44:46;30.30;;;16.50;;
75851;SDS011;64500;52.632;20.656;2022-12-24T07:47:14;32.50;;;16.90;;
75851;SDS011;64500;52.632;20.656;2022-12-24T07:49:41;30.70;;;15.60;;
75851;SDS011;64500;52.632;20.656;2022-12-24T07:52:08;30.50;;;16.30;;
75851;SDS011;64500;52.632;20.656;2022-12-24T07:54:35;33.80;;;17.00;;
75851;SDS011;64500;52.632;20.656;2022-12-24T07:57:02;32.90;;;17.30;;
75851;SDS011;64500;52.632;20.656;2022-12-24T07:59:28;32.70;;;17.50;;
75851;SDS011;64500;52.632;20.656;2022-12-24T08:01:56;31.90;;;16.20;;
75851;SDS011;64500;52.632;20.656;2022-12-24T08:04:23;31.30;;;16.80;;
75851;SDS011;64500;52.632;20.656;2022-12-24T08:06:50;31.10;;;16.30;;
75851;SDS011;64500;52.632;20.656;2022-12-24T08:09:17;33.00;;;16.80;;
75851;SDS011;64500;52.632;20.656;2022-12-24T08:11:44;30.90;;;16.60;;
75851;SDS011;64500;52.632;20.656;2022-12-24T08:14:11;31.00;;;16.90;;
75851;SDS011;64500;52.632;20.656;2022-12-24T08:16:38;31.10;;;16.20;;
75851;SDS011;64500;52.632;20.656;2022-12-24T08:19:05;31.00;;;16.00;;
75851;SDS011;64500;52.632;20.656;2022-12-24T08:21:32;29.70;;;14.60;;
75851;SDS011;64500;52.632;20.656;2022-12-24T08:23:59;26.90;;;15.00;;
75851;SDS011;64500;52.632;20.656;2022-12-24T08:26:26;27.10;;;13.70;;
75851;SDS011;64500;52.632;20.656;2022-12-24T08:28:53;27.80;;;13.70;;
75851;SDS011;64500;52.632;20.656;2022-12-24T08:31:20;27.20;;;14.30;;
75851;SDS011;64500;52.632;20.656;2022-12-24T08:33:47;22.00;;;11.20;;
75851;SDS011;64500;52.632;20.656;2022-12-24T08:36:14;22.90;;;12.20;;
75851;SDS011;64500;52.632;20.656;2022-12-24T08:38:41;23.80;;;12.10;;
75851;SDS011;64500;52.632;20.656;2022-12-24T08:41:08;23.70;;;11.80;;
75851;SDS011;64500;52.632;20.656;2022-12-24T08:43:35;23.30;;;11.40;;
75851;SDS011;64500;52.632;20.656;2022-12-24T08:46:03;20.20;;;9.90;;
75851;SDS011;64500;52.632;20.656;2022-12-24T08:48:31;20.30;;;10.20;;
75851;SDS011;64500;52.632;20.656;2022-12-24T08:50:59;21.00;;;9.50;;
75851;SDS011;64500;52.632;20.656;2022-12-24T08:53:26;21.60;;;9.30;;
75851;SDS011;64500;52.632;20.656;2022-12-24T08:55:59;17.90;;;8.60;;
75851;SDS011;64500;52.632;20.656;2022-12-24T08:58:28;18.20;;;9.00;;
75851;SDS011;64500;52.632;20.656;2022-12-24T09:00:56;20.70;;;9.70;;
75851;SDS011;64500;52.632;20.656;2022-12-24T09:03:24;17.50;;;8.20;;
75851;SDS011;64500;52.632;20.656;2022-12-24T09:05:51;18.30;;;8.10;;
75851;SDS011;64500;52.632;20.656;2022-12-24T09:08:21;20.90;;;8.70;;
75851;SDS011;64500;52.632;20.656;2022-12-24T09:10:49;16.40;;;8.10;;
75851;SDS011;64500;52.632;20.656;2022-12-24T09:13:16;19.80;;;9.50;;
75851;SDS011;64500;52.632;20.656;2022-12-24T09:15:51;20.10;;;8.40;;
75851;SDS011;64500;52.632;20.656;2022-12-24T09:18:19;19.50;;;8.90;;
75851;SDS011;64500;52.632;20.656;2022-12-24T09:20:45;19.50;;;8.60;;
75851;SDS011;64500;52.632;20.656;2022-12-24T09:23:13;19.60;;;9.30;;
75851;SDS011;64500;52.632;20.656;2022-12-24T09:25:40;20.40;;;9.20;;
75851;SDS011;64500;52.632;20.656;2022-12-24T09:28:09;20.80;;;8.80;;
75851;SDS011;64500;52.632;20.656;2022-12-24T09:30:36;24.50;;;9.70;;
75851;SDS011;64500;52.632;20.656;2022-12-24T09:33:03;19.80;;;9.50;;
75851;SDS011;64500;52.632;20.656;2022-12-24T09:35:30;20.70;;;8.90;;
75851;SDS011;64500;52.632;20.656;2022-12-24T09:37:57;18.50;;;8.60;;
75851;SDS011;64500;52.632;20.656;2022-12-24T09:40:39;18.10;;;9.00;;
75851;SDS011;64500;52.632;20.656;2022-12-24T09:43:13;18.60;;;7.70;;
75851;SDS011;64500;52.632;20.656;2022-12-24T09:48:24;21.10;;;10.80;;
75851;SDS011;64500;52.632;20.656;2022-12-24T09:51:00;22.60;;;11.60;;
75851;SDS011;64500;52.632;20.656;2022-12-24T09:56:43;20.70;;;10.20;;
75851;SDS011;64500;52.632;20.656;2022-12-24T09:59:25;21.00;;;10.40;;
75851;SDS011;64500;52.632;20.656;2022-12-24T10:02:08;20.80;;;9.10;;
75851;SDS011;64500;52.632;20.656;2022-12-24T10:04:38;19.00;;;10.00;;
75851;SDS011;64500;52.632;20.656;2022-12-24T10:17:36;15.10;;;7.60;;
75851;SDS011;64500;52.632;20.656;2022-12-24T10:28:22;16.90;;;8.40;;
75851;SDS011;64500;52.632;20.656;2022-12-24T10:30:57;14.80;;;6.80;;
75851;SDS011;64500;52.632;20.656;2022-12-24T10:33:52;16.00;;;7.20;;
75851;SDS011;64500;52.632;20.656;2022-12-24T10:36:21;17.70;;;6.80;;
75851;SDS011;64500;52.632;20.656;2022-12-24T10:38:53;14.70;;;6.80;;
75851;SDS011;64500;52.632;20.656;2022-12-24T10:41:20;15.20;;;6.90;;
75851;SDS011;64500;52.632;20.656;2022-12-24T10:43:48;13.60;;;5.90;;
75851;SDS011;64500;52.632;20.656;2022-12-24T10:46:58;15.70;;;7.00;;
75851;SDS011;64500;52.632;20.656;2022-12-24T10:49:10;13.00;;;6.50;;
75851;SDS011;64500;52.632;20.656;2022-12-24T10:51:56;15.60;;;6.70;;
75851;SDS011;64500;52.632;20.656;2022-12-24T10:54:29;15.80;;;6.40;;
75851;SDS011;64500;52.632;20.656;2022-12-24T10:57:05;15.70;;;7.00;;
75851;SDS011;64500;52.632;20.656;2022-12-24T10:59:49;16.50;;;8.50;;
75851;SDS011;64500;52.632;20.656;2022-12-24T11:02:32;15.00;;;7.90;;
75851;SDS011;64500;52.632;20.656;2022-12-24T11:05:04;17.60;;;8.30;;
75851;SDS011;64500;52.632;20.656;2022-12-24T11:07:33;18.20;;;8.00;;
75851;SDS011;64500;52.632;20.656;2022-12-24T11:12:32;18.10;;;7.60;;
75851;SDS011;64500;52.632;20.656;2022-12-24T11:15:05;15.80;;;8.20;;
75851;SDS011;64500;52.632;20.656;2022-12-24T11:20:41;15.70;;;8.10;;
75851;SDS011;64500;52.632;20.656;2022-12-24T11:23:16;14.90;;;7.50;;
75851;SDS011;64500;52.632;20.656;2022-12-24T11:25:48;16.70;;;7.30;;
75851;SDS011;64500;52.632;20.656;2022-12-24T11:28:21;13.90;;;6.90;;
75851;SDS011;64500;52.632;20.656;2022-12-24T11:31:16;15.20;;;7.10;;
75851;SDS011;64500;52.632;20.656;2022-12-24T11:33:46;17.20;;;8.40;;
75851;SDS011;64500;52.632;20.656;2022-12-24T11:36:16;14.00;;;6.50;;
75851;SDS011;64500;52.632;20.656;2022-12-24T11:38:51;14.50;;;7.20;;
75851;SDS011;64500;52.632;20.656;2022-12-24T11:41:20;15.40;;;7.30;;
75851;SDS011;64500;52.632;20.656;2022-12-24T11:43:49;13.10;;;6.10;;
75851;SDS011;64500;52.632;20.656;2022-12-24T11:46:21;12.90;;;6.30;;
75851;SDS011;64500;52.632;20.656;2022-12-24T11:51:39;14.30;;;7.10;;
75851;SDS011;64500;52.632;20.656;2022-12-24T11:54:13;16.90;;;8.40;;
75851;SDS011;64500;52.632;20.656;2022-12-24T11:56:46;13.90;;;7.50;;
75851;SDS011;64500;52.632;20.656;2022-12-24T11:59:19;20.70;;;9.60;;
75851;SDS011;64500;52.632;20.656;2022-12-24T12:01:55;19.20;;;9.70;;
75851;SDS011;64500;52.632;20.656;2022-12-24T12:04:43;17.20;;;9.10;;
75851;SDS011;64500;52.632;20.656;2022-12-24T12:07:16;19.90;;;9.50;;
75851;SDS011;64500;52.632;20.656;2022-12-24T12:09:49;22.20;;;10.00;;
75851;SDS011;64500;52.632;20.656;2022-12-24T12:12:21;16.50;;;8.10;;
75851;SDS011;64500;52.632;20.656;2022-12-24T12:15:05;14.70;;;7.10;;
75851;SDS011;64500;52.632;20.656;2022-12-24T12:25:22;13.90;;;5.80;;
75851;SDS011;64500;52.632;20.656;2022-12-24T12:28:21;17.20;;;7.70;;
75851;SDS011;64500;52.632;20.656;2022-12-24T12:36:55;12.50;;;6.40;;
75851;SDS011;64500;52.632;20.656;2022-12-24T12:39:31;14.40;;;7.10;;
75851;SDS011;64500;52.632;20.656;2022-12-24T12:49:54;15.20;;;6.80;;
75851;SDS011;64500;52.632;20.656;2022-12-24T12:52:42;14.50;;;6.70;;
75851;SDS011;64500;52.632;20.656;2022-12-24T12:55:34;13.50;;;5.90;;
75851;SDS011;64500;52.632;20.656;2022-12-24T12:58:16;15.30;;;6.00;;
75851;SDS011;64500;52.632;20.656;2022-12-24T13:00:49;12.30;;;6.80;;
75851;SDS011;64500;52.632;20.656;2022-12-24T13:03:33;13.50;;;6.70;;
75851;SDS011;64500;52.632;20.656;2022-12-24T13:09:09;12.00;;;6.60;;
75851;SDS011;64500;52.632;20.656;2022-12-24T13:22:50;14.60;;;7.00;;
75851;SDS011;64500;52.632;20.656;2022-12-24T13:25:26;14.40;;;7.30;;
75851;SDS011;64500;52.632;20.656;2022-12-24T13:27:54;13.40;;;6.20;;
75851;SDS011;64500;52.632;20.656;2022-12-24T13:30:37;12.10;;;5.90;;
75851;SDS011;64500;52.632;20.656;2022-12-24T13:33:12;12.50;;;6.00;;
75851;SDS011;64500;52.632;20.656;2022-12-24T13:36:00;13.50;;;6.90;;
75851;SDS011;64500;52.632;20.656;2022-12-24T13:38:38;17.20;;;6.60;;
75851;SDS011;64500;52.632;20.656;2022-12-24T13:57:38;13.40;;;6.80;;
75851;SDS011;64500;52.632;20.656;2022-12-24T14:02:51;15.40;;;7.80;;
75851;SDS011;64500;52.632;20.656;2022-12-24T14:08:10;15.00;;;7.80;;
75851;SDS011;64500;52.632;20.656;2022-12-24T14:10:42;16.20;;;8.80;;
75851;SDS011;64500;52.632;20.656;2022-12-24T14:18:49;19.50;;;9.20;;
75851;SDS011;64500;52.632;20.656;2022-12-24T14:21:36;18.90;;;9.60;;
75851;SDS011;64500;52.632;20.656;2022-12-24T14:24:15;20.30;;;10.80;;
75851;SDS011;64500;52.632;20.656;2022-12-24T14:30:06;16.30;;;8.90;;
75851;SDS011;64500;52.632;20.656;2022-12-24T14:35:24;15.60;;;8.80;;
75851;SDS011;64500;52.632;20.656;2022-12-24T14:37:57;16.60;;;8.90;;
75851;SDS011;64500;52.632;20.656;2022-12-24T14:48:41;18.70;;;9.90;;
75851;SDS011;64500;52.632;20.656;2022-12-24T14:54:09;16.80;;;9.90;;
75851;SDS011;64500;52.632;20.656;2022-12-24T14:59:58;17.70;;;9.70;;
75851;SDS011;64500;52.632;20.656;2022-12-24T15:07:55;21.70;;;12.20;;
75851;SDS011;64500;52.632;20.656;2022-12-24T15:12:55;22.50;;;11.30;;
75851;SDS011;64500;52.632;20.656;2022-12-24T15:15:27;20.60;;;11.40;;
75851;SDS011;64500;52.632;20.656;2022-12-24T15:17:54;20.40;;;10.80;;
75851;SDS011;64500;52.632;20.656;2022-12-24T15:20:24;19.20;;;11.00;;
75851;SDS011;64500;52.632;20.656;2022-12-24T15:22:55;21.20;;;11.60;;
75851;SDS011;64500;52.632;20.656;2022-12-24T15:25:25;19.20;;;11.40;;
75851;SDS011;64500;52.632;20.656;2022-12-24T15:27:58;19.50;;;11.20;;
75851;SDS011;64500;52.632;20.656;2022-12-24T15:30:26;20.20;;;11.30;;
75851;SDS011;64500;52.632;20.656;2022-12-24T15:32:55;23.30;;;11.30;;
75851;SDS011;64500;52.632;20.656;2022-12-24T15:38:22;19.60;;;11.50;;
75851;SDS011;64500;52.632;20.656;2022-12-24T15:40:56;17.20;;;10.00;;
75851;SDS011;64500;52.632;20.656;2022-12-24T15:43:24;17.80;;;10.50;;
75851;SDS011;64500;52.632;20.656;2022-12-24T15:45:52;18.10;;;10.60;;
75851;SDS011;64500;52.632;20.656;2022-12-24T15:48:24;18.90;;;10.00;;
75851;SDS011;64500;52.632;20.656;2022-12-24T15:50:55;18.80;;;10.70;;
75851;SDS011;64500;52.632;20.656;2022-12-24T15:53:36;19.80;;;11.00;;
75851;SDS011;64500;52.632;20.656;2022-12-24T15:56:14;18.70;;;11.00;;
75851;SDS011;64500;52.632;20.656;2022-12-24T15:58:53;19.40;;;11.00;;
75851;SDS011;64500;52.632;20.656;2022-12-24T16:01:46;21.50;;;12.40;;
75851;SDS011;64500;52.632;20.656;2022-12-24T16:04:15;23.00;;;13.10;;
75851;SDS011;64500;52.632;20.656;2022-12-24T16:06:51;24.40;;;15.10;;
75851;SDS011;64500;52.632;20.656;2022-12-24T16:09:42;28.40;;;14.60;;
75851;SDS011;64500;52.632;20.656;2022-12-24T16:12:13;32.00;;;17.60;;
75851;SDS011;64500;52.632;20.656;2022-12-24T16:14:47;33.40;;;18.00;;
75851;SDS011;64500;52.632;20.656;2022-12-24T16:17:22;32.20;;;18.10;;
75851;SDS011;64500;52.632;20.656;2022-12-24T16:19:53;31.40;;;18.10;;
75851;SDS011;64500;52.632;20.656;2022-12-24T16:22:22;31.60;;;18.40;;
75851;SDS011;64500;52.632;20.656;2022-12-24T16:27:46;30.70;;;17.50;;
75851;SDS011;64500;52.632;20.656;2022-12-24T16:30:13;33.30;;;19.00;;
75851;SDS011;64500;52.632;20.656;2022-12-24T16:32:41;31.20;;;18.00;;
75851;SDS011;64500;52.632;20.656;2022-12-24T16:35:42;29.10;;;17.00;;
75851;SDS011;64500;52.632;20.656;2022-12-24T16:38:03;28.90;;;16.60;;
75851;SDS011;64500;52.632;20.656;2022-12-24T16:40:30;32.80;;;19.50;;
75851;SDS011;64500;52.632;20.656;2022-12-24T16:42:58;30.90;;;18.40;;
75851;SDS011;64500;52.632;20.656;2022-12-24T16:45:43;32.40;;;18.60;;
75851;SDS011;64500;52.632;20.656;2022-12-24T16:48:16;31.70;;;18.50;;
75851;SDS011;64500;52.632;20.656;2022-12-24T16:50:50;31.40;;;17.60;;
75851;SDS011;64500;52.632;20.656;2022-12-24T16:53:19;29.80;;;17.60;;
75851;SDS011;64500;52.632;20.656;2022-12-24T16:55:47;34.00;;;19.00;;
75851;SDS011;64500;52.632;20.656;2022-12-24T16:58:16;32.40;;;18.90;;
75851;SDS011;64500;52.632;20.656;2022-12-24T17:00:45;32.20;;;18.40;;
75851;SDS011;64500;52.632;20.656;2022-12-24T17:03:12;30.80;;;17.10;;
75851;SDS011;64500;52.632;20.656;2022-12-24T17:05:40;32.40;;;17.50;;
75851;SDS011;64500;52.632;20.656;2022-12-24T17:08:09;27.10;;;16.70;;